Rifle, CO

5:03 PM MDT on September 26, 2016 (GMT -0600)
Cactus Valley, Greg and Nella | | Change Station

Elev 5449 ft 39.55 °N, 107.73 °W | Updated 10 minutes ago

Clear
Clear
75.7 °F
Feels Like 77 °F
N
3.0
Wind Variable Wind from WSW
Gusts 5.0 mph

Today
High -- | Low -- °F
--% Chance of Precip.
Yesterday
High -- | Low -- °F
Precip. -- in
Pressure 30.17 in
Visibility 10.0 miles
Clouds Clear
Heat Index 77 °F
Dew Point 36 °F
Humidity 24%
Rainfall 0.00 in
Snow Depth Not available.
7:03 AM 7:00 PM
Waning Crescent, 16% visible
METAR KRIL 262253Z AUTO 31006KT 10SM CLR 24/M01 A3029 RMK AO2 SLP215 T02391006
Pressure 30.17 in
Visibility 10.0 miles
Clouds Clear
Heat Index 77 °F
Dew Point 36 °F
Humidity 24%
Rainfall 0.00 in
Snow Depth Not available.
7:03 AM 7:00 PM
Waning Crescent, 16% visible
METAR KRIL 262253Z AUTO 31006KT 10SM CLR 24/M01 A3029 RMK AO2 SLP215 T02391006

10-Day Weather Forecast

Almanac

Astronomy

Sep. 26, 2016 Rise Set
Actual Time
Civil Twilight
Nautical Twilight
Astronomical Twilight
Moon
Length of Visible Light
Length of Day
Tomorrow will be .
, % of the Moon is Illuminated

Today's Extremes

State Highs State Lows

Community

WunderPhotos

Upload Photos

1,941,983 photos uploaded!

WunderBlog® & News

Nearby

Air Quality

  Air Quality AQ Index Pollutant
Not available.

Snow Depth

Station Depth Elevation

Earthquake Activity

City Distance Mag. Time & Date
Minimum magnitude displayed is 2.5.

Coastal Water Temperatures

Place Temperature

Stations

Nearby Weather Stations

Station Location Temp. Windchill Dew Point Humidity Wind Precip. Elev Updated Type
                   

Watches & Warnings

There are currently no watches in effect.